Time;durP1;ratioP1;P1;durP2;ratioP2;P2;SDS_P1;SDS_P2;PMS_P1;PMS_P2;Temp;Humidity;BMP_temperature;BMP_pressure;BME280_temperature;BME280_humidity;BME280_pressure;Samples;Min_cycle;Max_cycle;Signal;HPM_P1;HPM_P2
2021/07/23 17:31:01;;;;;;;18.23;3.67;;;38.70;48.00;;;;;;5139532;27;20532;-63
2021/07/23 17:33:27;;;;;;;19.65;4.75;;;38.60;47.70;;;;;;5124604;27;20091;-64
2021/07/23 17:35:54;;;;;;;26.85;4.32;;;38.70;48.50;;;;;;5127219;27;20072;-64
2021/07/23 17:38:20;;;;;;;21.45;4.47;;;38.80;48.30;;;;;;5123234;27;20080;-63
2021/07/23 17:40:48;;;;;;;13.98;3.85;;;39.70;69.90;;;;;;5122073;27;20086;-63
2021/07/23 17:43:14;;;;;;;18.05;4.47;;;39.30;62.30;;;;;;5121199;27;20029;-64
2021/07/23 17:48:31;;;;;;;19.70;4.05;;;39.20;44.50;;;;;;5129186;27;20073;-64
2021/07/23 17:50:58;;;;;;;16.60;4.10;;;39.60;44.90;;;;;;5121424;27;20536;-64
2021/07/23 17:53:25;;;;;;;17.50;4.20;;;39.50;44.10;;;;;;5124455;27;20077;-64
2021/07/23 17:55:52;;;;;;;14.73;3.78;;;39.60;44.00;;;;;;5124526;27;20084;-64
2021/07/23 17:58:18;;;;;;;19.73;4.20;;;37.80;51.20;;;;;;5124103;27;20083;-63
2021/07/23 18:00:45;;;;;;;15.77;3.20;;;39.60;42.90;;;;;;5124258;27;20079;-63
2021/07/23 18:03:12;;;;;;;14.60;3.67;;;39.80;40.90;;;;;;5124937;27;20081;-65
2021/07/23 18:05:39;;;;;;;13.73;3.75;;;40.00;40.50;;;;;;5125949;27;20511;-63
2021/07/23 18:08:06;;;;;;;15.73;4.00;;;40.40;40.50;;;;;;5122063;27;20072;-64
2021/07/23 18:10:33;;;;;;;20.60;4.00;;;40.60;40.10;;;;;;5124267;27;20825;-64
2021/07/23 18:13:00;;;;;;;25.63;4.93;;;40.80;39.50;;;;;;5122917;27;20066;-63
2021/07/23 18:15:28;;;;;;;25.00;3.67;;;40.40;39.40;;;;;;5122346;27;20032;-63
2021/07/23 18:17:56;;;;;;;20.30;3.67;;;40.30;39.80;;;;;;5112901;27;20412;-64
2021/07/23 18:20:23;;;;;;;17.80;3.72;;;40.10;50.40;;;;;;5127676;27;20092;-64
2021/07/23 18:22:50;;;;;;;16.60;3.70;;;40.20;40.10;;;;;;5122693;27;20068;-66
2021/07/23 18:25:16;;;;;;;19.70;3.60;;;40.10;40.00;;;;;;5122959;27;20114;-66
2021/07/23 18:27:43;;;;;;;15.45;4.03;;;40.50;38.70;;;;;;5121121;27;20076;-66
2021/07/23 18:30:10;;;;;;;15.48;4.10;;;40.30;38.40;;;;;;5114607;27;20195;-65
2021/07/23 18:32:37;;;;;;;21.45;2.80;;;40.30;35.00;;;;;;5108653;27;20160;-64
2021/07/23 18:35:04;;;;;;;13.60;3.40;;;40.20;36.80;;;;;;5103471;27;20595;-65
2021/07/23 18:37:30;;;;;;;16.27;3.30;;;40.40;37.50;;;;;;5111807;27;20103;-65
2021/07/23 18:39:57;;;;;;;13.68;3.03;;;40.20;38.10;;;;;;5108388;27;20100;-62
2021/07/23 18:42:23;;;;;;;19.42;3.17;;;40.40;39.80;;;;;;5111579;27;20072;-64
2021/07/23 18:44:50;;;;;;;15.43;3.72;;;40.30;57.30;;;;;;5108371;27;20023;-65
2021/07/23 18:47:16;;;;;;;17.70;3.63;;;40.60;39.60;;;;;;5104547;27;20052;-64
2021/07/23 18:49:44;;;;;;;17.80;3.63;;;40.90;39.90;;;;;;5109074;27;20028;-64
2021/07/23 18:52:11;;;;;;;15.80;3.13;;;40.80;52.40;;;;;;5106237;27;20201;-64
2021/07/23 18:54:38;;;;;;;18.13;4.22;;;40.20;61.50;;;;;;5105198;27;20525;-65
2021/07/23 18:57:05;;;;;;;16.25;3.35;;;40.70;39.00;;;;;;5109030;27;20068;-65
2021/07/23 18:59:32;;;;;;;13.32;3.80;;;40.80;38.90;;;;;;5105506;27;20523;-64
2021/07/23 19:02:00;;;;;;;24.55;3.63;;;40.50;70.70;;;;;;5107806;27;20108;-64
2021/07/23 19:04:27;;;;;;;21.05;3.55;;;40.90;36.50;;;;;;5109431;27;20584;-64
2021/07/23 19:06:54;;;;;;;18.77;4.10;;;40.80;35.10;;;;;;5101874;27;20072;-65
2021/07/23 19:09:21;;;;;;;12.02;3.28;;;40.50;52.00;;;;;;5104256;27;20084;-64
2021/07/23 19:11:50;;;;;;;17.98;3.33;;;41.00;35.60;;;;;;5105077;27;20082;-64
2021/07/23 19:14:18;;;;;;;24.88;3.60;;;41.00;35.70;;;;;;5108618;27;20524;-65
2021/07/23 19:16:44;;;;;;;19.60;3.95;;;41.10;36.70;;;;;;5103591;27;20092;-64
2021/07/23 19:19:11;;;;;;;14.93;3.35;;;41.00;36.20;;;;;;5109576;28;20111;-65
2021/07/23 19:21:37;;;;;;;14.68;4.20;;;41.10;36.00;;;;;;5110167;27;20068;-65
2021/07/23 19:24:04;;;;;;;17.98;3.25;;;41.10;35.40;;;;;;5108767;28;20232;-64
2021/07/23 19:26:31;;;;;;;15.70;3.15;;;41.20;34.90;;;;;;5101359;28;20187;-63
2021/07/23 19:28:58;;;;;;;15.85;3.10;;;41.20;35.00;;;;;;5101935;27;20103;-62
2021/07/23 19:31:25;;;;;;;19.23;3.25;;;41.30;35.30;;;;;;5110576;27;20536;-65
2021/07/23 19:33:52;;;;;;;12.70;3.35;;;41.20;35.30;;;;;;5105746;27;20432;-64
2021/07/23 19:36:18;;;;;;;10.50;3.10;;;40.90;35.90;;;;;;5108725;27;20117;-63
2021/07/23 19:38:45;;;;;;;16.52;3.47;;;41.10;35.70;;;;;;5106943;28;20116;-64
2021/07/23 19:41:12;;;;;;;15.63;3.72;;;;;;;;;;5109073;27;20155;-64
2021/07/23 19:43:38;;;;;;;12.93;2.65;;;41.10;34.60;;;;;;5106776;27;20068;-63
2021/07/23 19:46:05;;;;;;;14.90;3.40;;;41.30;34.90;;;;;;5110570;28;20159;-63
2021/07/23 19:48:32;;;;;;;18.42;3.45;;;41.40;35.20;;;;;;5108149;27;20192;-63
2021/07/23 19:50:59;;;;;;;21.38;3.45;;;41.60;34.80;;;;;;5112160;27;20098;-64
2021/07/23 19:53:25;;;;;;;13.18;3.78;;;41.50;34.50;;;;;;5107591;28;20137;-63
2021/07/23 19:55:52;;;;;;;23.92;3.67;;;41.60;33.70;;;;;;5106231;28;20080;-64
2021/07/23 19:58:19;;;;;;;21.48;4.47;;;;;;;;;;5104276;27;20068;-63
2021/07/23 20:00:46;;;;;;;15.35;4.63;;;41.60;32.00;;;;;;5108979;27;20032;-63
2021/07/23 20:03:12;;;;;;;20.70;3.95;;;41.70;32.40;;;;;;5104848;27;20084;-62
2021/07/23 20:05:40;;;;;;;18.08;3.08;;;41.80;30.80;;;;;;5106643;28;20072;-63
2021/07/23 20:08:07;;;;;;;12.90;3.13;;;42.20;36.50;;;;;;5110072;27;20100;-64
2021/07/23 20:10:34;;;;;;;18.05;3.17;;;41.90;33.00;;;;;;5102906;27;20091;-64
2021/07/23 20:13:01;;;;;;;11.70;3.05;;;41.80;30.60;;;;;;5106440;27;20536;-64
2021/07/23 20:15:28;;;;;;;14.93;3.10;;;41.70;32.20;;;;;;5102046;27;20148;-63
2021/07/23 20:17:55;;;;;;;12.13;3.47;;;41.90;29.90;;;;;;5108061;27;20082;-64
2021/07/23 20:20:21;;;;;;;12.20;2.90;;;42.20;30.20;;;;;;5111735;27;20490;-63
2021/07/23 20:22:48;;;;;;;17.75;3.97;;;42.20;29.70;;;;;;5103850;27;20549;-64
2021/07/23 20:25:15;;;;;;;12.32;2.40;;;42.20;29.30;;;;;;5101900;28;20155;-63
2021/07/23 20:27:42;;;;;;;15.45;2.45;;;42.10;29.20;;;;;;5104067;27;20127;-64
2021/07/23 20:30:09;;;;;;;7.55;2.10;;;42.10;29.50;;;;;;5103834;27;20108;-64
2021/07/23 20:32:36;;;;;;;10.52;2.85;;;42.30;28.50;;;;;;5105482;27;20077;-63
2021/07/23 20:35:03;;;;;;;16.00;2.80;;;42.40;29.00;;;;;;5106522;27;20429;-65
2021/07/23 20:37:36;;;;;;;12.20;2.75;;;42.50;29.60;;;;;;5110528;27;20080;-65
2021/07/23 20:40:06;;;;;;;17.23;3.17;;;42.40;28.80;;;;;;5107378;27;20100;-64
2021/07/23 20:42:33;;;;;;;14.23;3.25;;;42.50;28.40;;;;;;5106718;27;20075;-64
2021/07/23 20:45:06;;;;;;;15.75;3.00;;;42.20;29.20;;;;;;5105940;27;20076;-63
2021/07/23 20:47:35;;;;;;;9.85;2.80;;;42.20;29.40;;;;;;5109299;28;20072;-64
2021/07/23 20:50:01;;;;;;;11.23;2.53;;;42.10;29.50;;;;;;5104638;27;20164;-64
2021/07/23 20:52:28;;;;;;;13.75;3.03;;;42.20;29.10;;;;;;5106124;27;20121;-64
2021/07/23 20:54:54;;;;;;;16.15;3.05;;;42.10;28.80;;;;;;5110800;28;20129;-66
2021/07/23 20:57:21;;;;;;;17.48;2.83;;;42.20;29.00;;;;;;5107291;28;20087;-63
2021/07/23 20:59:47;;;;;;;15.27;2.90;;;42.30;29.10;;;;;;5108834;27;20089;-64
2021/07/23 21:02:14;;;;;;;13.02;2.80;;;42.40;29.10;;;;;;5109713;27;20068;-63
2021/07/23 21:04:41;;;;;;;11.80;2.90;;;42.50;29.10;;;;;;5103750;28;20080;-63
2021/07/23 21:07:07;;;;;;;15.77;3.03;;;42.40;29.60;;;;;;5104097;28;20076;-63
2021/07/23 21:09:33;;;;;;;11.95;3.15;;;42.50;29.20;;;;;;5104774;28;20076;-64
2021/07/23 21:12:00;;;;;;;14.38;3.00;;;42.60;29.60;;;;;;5099739;27;20091;-64
2021/07/23 21:14:26;;;;;;;10.48;2.65;;;42.60;31.80;;;;;;5103661;28;20080;-62
2021/07/23 21:16:53;;;;;;;19.88;3.30;;;42.50;29.30;;;;;;5109965;27;20075;-63
2021/07/23 21:19:20;;;;;;;12.02;2.58;;;42.50;29.10;;;;;;5105369;28;20100;-63
2021/07/23 21:21:47;;;;;;;16.40;3.15;;;42.40;28.50;;;;;;5105781;28;20197;-64
2021/07/23 21:24:16;;;;;;;14.40;2.53;;;42.40;46.10;;;;;;5108853;28;20072;-62
2021/07/23 21:26:42;;;;;;;11.10;2.90;;;42.30;28.80;;;;;;5108023;28;20076;-62
2021/07/23 21:29:09;;;;;;;14.05;2.30;;;42.50;29.10;;;;;;5104614;28;20100;-63
2021/07/23 21:31:35;;;;;;;21.77;2.83;;;42.60;28.30;;;;;;5103495;28;20123;-64
2021/07/23 21:34:03;;;;;;;11.90;2.50;;;42.70;39.10;;;;;;5099060;28;20080;-65
2021/07/23 21:36:29;;;;;;;10.68;2.70;;;42.50;28.00;;;;;;5105778;28;20445;-63
2021/07/23 21:38:56;;;;;;;20.88;2.95;;;42.50;27.30;;;;;;5107459;28;20078;-63
2021/07/23 21:41:22;;;;;;;12.98;2.63;;;42.40;27.90;;;;;;5104537;28;20151;-63
2021/07/23 21:43:49;;;;;;;12.27;3.08;;;42.30;27.80;;;;;;5103783;28;20051;-63
2021/07/23 21:46:19;;;;;;;13.45;2.60;;;42.30;28.30;;;;;;5104328;28;20611;-62
2021/07/23 21:48:46;;;;;;;8.45;2.20;;;42.00;33.30;;;;;;5105712;28;20162;-63
2021/07/23 21:51:13;;;;;;;11.73;2.60;;;42.30;28.50;;;;;;5105543;28;20080;-63
2021/07/23 21:53:40;;;;;;;15.52;2.90;;;42.50;28.60;;;;;;5106198;28;20080;-63
2021/07/23 21:56:07;;;;;;;23.65;4.00;;;42.50;28.50;;;;;;5104726;28;20877;-63
2021/07/23 21:58:33;;;;;;;14.57;2.70;;;42.50;28.90;;;;;;5104883;28;20079;-63
2021/07/23 22:01:00;;;;;;;10.40;2.70;;;42.40;29.20;;;;;;5105513;28;20129;-63
2021/07/23 22:03:29;;;;;;;12.05;2.45;;;42.30;29.50;;;;;;5106243;28;20158;-62
2021/07/23 22:05:56;;;;;;;18.75;3.42;;;42.50;29.60;;;;;;5103478;27;20098;-63
2021/07/23 22:08:22;;;;;;;10.93;2.40;;;42.50;29.30;;;;;;5108605;27;20564;-63
2021/07/23 22:10:49;;;;;;;15.00;2.78;;;42.30;28.80;;;;;;5107158;27;20163;-65
2021/07/23 22:13:15;;;;;;;18.08;2.42;;;42.10;29.00;;;;;;5110039;27;20159;-62
2021/07/23 22:15:42;;;;;;;9.93;2.38;;;42.30;29.00;;;;;;5111315;27;20072;-63
2021/07/23 22:18:08;;;;;;;25.38;3.50;;;42.10;29.10;;;;;;5112742;27;20072;-63
2021/07/23 22:20:35;;;;;;;9.75;2.80;;;42.50;41.90;;;;;;5107072;27;20587;-63
2021/07/23 22:23:01;;;;;;;14.82;2.85;;;41.90;29.00;;;;;;5110900;27;20076;-64
2021/07/23 22:25:30;;;;;;;20.20;2.90;;;42.10;29.30;;;;;;5113896;27;20546;-65
2021/07/23 22:27:57;;;;;;;15.10;2.63;;;42.10;28.00;;;;;;5107432;27;20076;-62
2021/07/23 22:30:23;;;;;;;12.32;2.92;;;42.00;28.30;;;;;;5110454;27;20137;-62
2021/07/23 22:32:50;;;;;;;12.48;2.88;;;42.20;27.80;;;;;;5106556;27;20076;-63
2021/07/23 22:35:16;;;;;;;9.27;2.20;;;41.90;28.00;;;;;;5110252;28;20068;-63
2021/07/23 22:37:43;;;;;;;13.25;2.50;;;41.90;28.30;;;;;;5104500;27;20522;-64
2021/07/23 22:40:10;;;;;;;14.30;2.65;;;41.70;28.10;;;;;;5109671;27;20233;-63
2021/07/23 22:42:37;;;;;;;12.05;3.15;;;41.80;27.80;;;;;;5104911;27;20534;-63
2021/07/23 22:45:04;;;;;;;11.00;2.50;;;41.80;27.70;;;;;;5111221;28;20463;-64
2021/07/23 22:47:31;;;;;;;11.57;2.15;;;41.80;27.50;;;;;;5108435;27;20073;-63
2021/07/23 22:49:57;;;;;;;11.10;2.35;;;41.80;27.60;;;;;;5114180;27;20557;-63
2021/07/23 22:52:24;;;;;;;10.68;2.22;;;41.70;27.50;;;;;;5111061;27;20502;-64
2021/07/23 22:54:50;;;;;;;14.15;2.67;;;41.70;27.70;;;;;;5111913;27;20106;-63
2021/07/23 22:57:17;;;;;;;21.05;2.35;;;41.80;27.90;;;;;;5110640;27;20137;-62
2021/07/23 22:59:44;;;;;;;8.93;2.67;;;41.70;27.90;;;;;;5107486;27;20095;-63
2021/07/23 23:02:11;;;;;;;12.88;3.25;;;41.80;28.00;;;;;;5106618;27;20080;-63
2021/07/23 23:04:37;;;;;;;8.43;2.47;;;41.60;28.30;;;;;;5106596;28;20155;-63
2021/07/23 23:07:04;;;;;;;9.27;2.78;;;41.80;27.40;;;;;;5109848;27;20068;-62
2021/07/23 23:09:30;;;;;;;10.57;2.47;;;41.60;27.70;;;;;;5110729;27;20163;-64
2021/07/23 23:11:57;;;;;;;7.10;2.20;;;41.60;27.60;;;;;;5109526;27;20181;-62
2021/07/23 23:14:24;;;;;;;12.65;1.95;;;41.80;27.00;;;;;;5111931;27;20162;-63
2021/07/23 23:16:51;;;;;;;16.02;2.53;;;41.60;26.30;;;;;;5111739;27;20068;-64
2021/07/23 23:19:17;;;;;;;16.85;2.53;;;41.60;26.20;;;;;;5108026;27;20122;-63
2021/07/23 23:21:43;;;;;;;8.63;2.40;;;41.60;26.20;;;;;;5107411;27;20076;-63
2021/07/23 23:24:10;;;;;;;6.95;2.10;;;41.40;26.40;;;;;;5105219;28;20546;-62
2021/07/23 23:26:36;;;;;;;11.88;2.58;;;41.60;26.70;;;;;;5106019;27;20524;-62
2021/07/23 23:29:03;;;;;;;10.70;2.13;;;41.60;26.30;;;;;;5108660;27;20103;-63
2021/07/23 23:31:29;;;;;;;9.00;2.42;;;41.40;26.40;;;;;;5106454;27;20413;-63
2021/07/23 23:33:57;;;;;;;13.20;2.72;;;41.40;26.70;;;;;;5104923;27;20076;-63
2021/07/23 23:36:26;;;;;;;12.48;2.10;;;41.50;26.80;;;;;;5110063;27;20163;-63
2021/07/23 23:38:52;;;;;;;12.85;2.20;;;41.40;26.70;;;;;;5109605;27;20134;-63
2021/07/23 23:41:19;;;;;;;17.52;2.65;;;41.40;26.90;;;;;;5110537;27;20130;-61
2021/07/23 23:43:46;;;;;;;8.25;2.30;;;41.40;27.40;;;;;;5105979;28;20517;-62
2021/07/23 23:46:16;;;;;;;11.65;2.50;;;41.50;27.80;;;;;;5107949;27;20080;-62
2021/07/23 23:48:43;;;;;;;11.73;2.85;;;41.50;27.50;;;;;;5110138;27;20103;-64
2021/07/23 23:51:10;;;;;;;13.60;2.38;;;41.50;27.70;;;;;;5110403;27;20103;-62
2021/07/23 23:53:37;;;;;;;15.45;2.67;;;41.40;27.50;;;;;;5111802;27;20457;-63
2021/07/23 23:56:08;;;;;;;15.40;2.63;;;41.30;27.30;;;;;;5109133;27;20071;-63
2021/07/23 23:58:36;;;;;;;17.17;2.63;;;41.10;27.80;;;;;;5103145;28;20091;-64
